createdAt,value
2018-07-26T00:03:33.559Z,5.70
2018-07-26T00:08:43.099Z,5.40
2018-07-26T00:13:52.073Z,5.23
2018-07-26T00:19:01.609Z,5.20
2018-07-26T00:24:10.919Z,5.40
2018-07-26T00:29:20.195Z,5.10
2018-07-26T00:34:29.232Z,5.13
2018-07-26T00:39:38.338Z,5.90
2018-07-26T00:44:47.481Z,5.53
2018-07-26T00:49:56.164Z,5.20
2018-07-26T00:55:05.179Z,4.77
2018-07-26T01:00:14.201Z,4.90
2018-07-26T01:05:24.077Z,4.80
2018-07-26T01:10:33.075Z,5.27
2018-07-26T01:15:42.334Z,4.93
2018-07-26T01:20:51.894Z,5.10
2018-07-26T01:26:01.118Z,5.10
2018-07-26T01:31:10.993Z,5.30
2018-07-26T01:36:20.374Z,4.53
2018-07-26T01:41:29.845Z,5.23
2018-07-26T01:46:38.784Z,5.30
2018-07-26T01:51:47.976Z,5.47
2018-07-26T01:56:57.120Z,5.63
2018-07-26T02:02:07.001Z,5.90
2018-07-26T02:07:16.357Z,5.73
2018-07-26T02:12:25.287Z,6.07
2018-07-26T02:17:34.208Z,6.57
2018-07-26T02:22:43.353Z,5.80
2018-07-26T02:27:54.042Z,5.80
2018-07-26T02:33:02.780Z,5.70
2018-07-26T02:38:11.773Z,5.83
2018-07-26T02:43:21.522Z,5.97
2018-07-26T02:48:30.480Z,6.03
2018-07-26T02:53:39.358Z,6.40
2018-07-26T02:58:48.337Z,6.33
2018-07-26T03:03:57.477Z,6.70
2018-07-26T03:09:06.979Z,6.00
2018-07-26T03:14:16.474Z,6.23
2018-07-26T03:19:25.727Z,6.47
2018-07-26T03:24:34.732Z,6.20
2018-07-26T03:29:43.748Z,5.97
2018-07-26T03:34:53.226Z,6.07
2018-07-26T03:40:02.002Z,6.37
2018-07-26T03:45:11.113Z,6.07
2018-07-26T03:50:19.937Z,6.73
2018-07-26T03:55:29.236Z,6.90
2018-07-26T04:00:38.484Z,6.43
2018-07-26T04:05:54.873Z,7.63
2018-07-26T04:11:04.706Z,7.00
2018-07-26T04:16:14.159Z,6.87
2018-07-26T04:21:23.320Z,7.40
2018-07-26T04:26:32.433Z,6.47
2018-07-26T04:31:41.416Z,7.03
2018-07-26T04:36:50.668Z,6.63
2018-07-26T04:41:59.843Z,5.60
2018-07-26T04:47:09.068Z,5.07
2018-07-26T04:52:18.169Z,4.83
2018-07-26T04:57:27.869Z,5.40
2018-07-26T05:02:37.813Z,5.07
2018-07-26T05:07:47.186Z,5.07
2018-07-26T05:12:56.776Z,5.60
2018-07-26T05:18:06.520Z,5.03
2018-07-26T05:23:16.028Z,4.80
2018-07-26T05:28:26.019Z,5.40
2018-07-26T05:33:34.989Z,4.43
2018-07-26T05:38:44.059Z,4.93
2018-07-26T05:43:54.027Z,5.33
2018-07-26T05:49:04.261Z,4.77
2018-07-26T05:54:13.974Z,5.07
2018-07-26T05:59:23.623Z,5.37
2018-07-26T06:04:33.313Z,5.30
2018-07-26T06:09:42.985Z,4.80
2018-07-26T06:14:53.184Z,5.30
2018-07-26T06:20:03.780Z,5.20
2018-07-26T06:25:13.361Z,5.07
2018-07-26T06:30:23.737Z,5.03
2018-07-26T06:35:32.908Z,5.53
2018-07-26T06:40:41.965Z,5.40
2018-07-26T06:45:51.840Z,5.83
2018-07-26T06:51:01.680Z,6.00
2018-07-26T06:56:11.426Z,5.70
2018-07-26T07:01:21.140Z,5.90
2018-07-26T07:06:30.198Z,6.30
2018-07-26T07:11:40.225Z,6.20
2018-07-26T07:16:49.666Z,6.20
2018-07-26T07:21:59.670Z,6.10
2018-07-26T07:27:09.301Z,6.80
2018-07-26T07:32:18.449Z,6.10
2018-07-26T07:37:28.412Z,6.47
2018-07-26T07:42:37.519Z,6.50
2018-07-26T07:47:47.076Z,6.10
2018-07-26T07:52:56.075Z,5.83
2018-07-26T07:58:06.704Z,5.80
2018-07-26T08:03:16.265Z,6.40
2018-07-26T08:08:25.587Z,6.10
2018-07-26T08:13:35.168Z,5.60
2018-07-26T08:18:45.218Z,5.70
2018-07-26T08:23:54.757Z,6.00
2018-07-26T08:29:39.193Z,6.37
2018-07-26T08:34:50.384Z,6.50
2018-07-26T08:39:59.935Z,6.40
2018-07-26T08:45:11.023Z,5.60
2018-07-26T08:50:20.969Z,5.43
2018-07-26T08:55:30.924Z,5.47
2018-07-26T09:00:40.535Z,5.40
2018-07-26T09:05:50.127Z,5.53
2018-07-26T09:11:00.390Z,5.33
2018-07-26T09:16:10.018Z,5.33
2018-07-26T09:21:23.676Z,5.50
2018-07-26T09:26:32.971Z,5.93
2018-07-26T09:31:42.700Z,5.20
2018-07-26T09:36:51.790Z,5.37
2018-07-26T09:42:01.085Z,5.30
2018-07-26T09:47:11.266Z,4.40
2018-07-26T09:52:20.568Z,5.00
2018-07-26T09:57:30.239Z,4.70
2018-07-26T10:02:39.975Z,5.07
2018-07-26T10:07:49.790Z,4.93
2018-07-26T10:12:58.991Z,5.50
2018-07-26T10:18:08.217Z,4.30
2018-07-26T10:23:18.058Z,4.80
2018-07-26T10:28:28.232Z,5.03
2018-07-26T10:33:37.490Z,5.23
2018-07-26T10:38:46.482Z,5.20
2018-07-26T10:43:56.025Z,4.60
2018-07-26T10:49:05.229Z,4.70
2018-07-26T10:54:15.011Z,4.73
2018-07-26T10:59:24.881Z,4.20
2018-07-26T11:04:34.310Z,4.70
2018-07-26T11:09:43.340Z,4.63
2018-07-26T11:14:53.520Z,5.03
2018-07-26T11:20:03.912Z,5.00
2018-07-26T11:25:14.306Z,5.17
2018-07-26T11:30:24.212Z,4.70
2018-07-26T11:35:33.304Z,4.67
2018-07-26T11:40:42.855Z,4.30
2018-07-26T11:45:53.579Z,4.67
2018-07-26T11:51:03.323Z,4.73
2018-07-26T11:56:12.944Z,5.10
2018-07-26T12:01:22.155Z,4.93
2018-07-26T12:06:32.258Z,5.17
2018-07-26T12:11:42.103Z,4.80
2018-07-26T12:16:52.199Z,4.67
2018-07-26T12:22:02.027Z,4.57
2018-07-26T12:27:11.309Z,4.80
2018-07-26T12:32:21.096Z,4.73
2018-07-26T12:37:31.068Z,4.40
2018-07-26T12:42:41.209Z,4.17
2018-07-26T12:47:50.583Z,4.60
2018-07-26T12:53:00.499Z,3.93
2018-07-26T12:58:09.607Z,4.60
2018-07-26T13:03:18.949Z,5.17
2018-07-26T13:08:28.451Z,4.50
2018-07-26T13:13:38.438Z,4.33
2018-07-26T13:18:47.821Z,3.40
2018-07-26T13:23:56.864Z,4.10
2018-07-26T13:29:05.843Z,4.70
2018-07-26T13:34:16.050Z,3.70
2018-07-26T13:39:28.045Z,3.30
2018-07-26T13:44:37.748Z,3.90
2018-07-26T13:49:48.795Z,3.87
2018-07-26T13:54:57.855Z,4.00
2018-07-26T14:00:07.674Z,4.10
2018-07-26T14:05:17.678Z,4.23
2018-07-26T14:10:27.538Z,4.10
2018-07-26T14:15:37.121Z,4.10
2018-07-26T14:20:47.006Z,3.97
2018-07-26T14:25:56.230Z,4.10
2018-07-26T14:31:06.666Z,4.07
2018-07-26T14:36:16.146Z,4.40
2018-07-26T14:41:25.534Z,4.33
2018-07-26T14:46:35.078Z,3.83
2018-07-26T14:51:45.904Z,3.87
2018-07-26T14:56:55.924Z,3.67
2018-07-26T15:02:05.697Z,4.30
2018-07-26T15:07:17.610Z,4.20
2018-07-26T15:12:27.224Z,3.97
2018-07-26T15:17:36.419Z,3.77
2018-07-26T15:22:45.896Z,4.30
2018-07-26T15:27:56.046Z,4.10
2018-07-26T15:33:05.920Z,3.87
2018-07-26T15:38:15.170Z,3.50
2018-07-26T15:43:24.987Z,3.30
2018-07-26T15:48:34.856Z,4.37
2018-07-26T15:53:44.299Z,3.73
2018-07-26T15:58:54.251Z,4.03
2018-07-26T16:04:04.180Z,4.37
2018-07-26T16:09:13.320Z,4.23
2018-07-26T16:14:24.224Z,4.30
2018-07-26T16:19:34.135Z,4.27
2018-07-26T16:24:44.648Z,3.77
2018-07-26T16:29:54.231Z,4.23
2018-07-26T16:35:04.430Z,4.47
2018-07-26T16:40:14.602Z,4.00
2018-07-26T16:45:24.362Z,4.20
2018-07-26T16:50:33.682Z,4.43
2018-07-26T16:55:42.651Z,4.60
2018-07-26T17:00:51.890Z,5.23
2018-07-26T17:06:01.890Z,4.60
2018-07-26T17:11:11.576Z,4.77
2018-07-26T17:16:21.081Z,4.60
2018-07-26T17:21:31.114Z,4.57
2018-07-26T17:26:41.273Z,4.80
2018-07-26T17:31:50.629Z,4.77
2018-07-26T17:37:00.472Z,4.30
2018-07-26T17:42:10.185Z,4.47
2018-07-26T17:47:19.598Z,4.50
2018-07-26T17:52:29.473Z,4.57
2018-07-26T17:57:38.451Z,4.77
2018-07-26T18:02:48.309Z,4.63
2018-07-26T18:07:57.876Z,4.13
2018-07-26T18:13:08.329Z,4.87
2018-07-26T18:18:18.239Z,4.80
2018-07-26T18:23:27.557Z,5.27
2018-07-26T18:28:37.419Z,5.00
2018-07-26T18:33:47.246Z,5.00
2018-07-26T18:38:58.744Z,5.10
2018-07-26T18:44:08.409Z,4.67
2018-07-26T18:49:18.228Z,5.17
2018-07-26T18:54:27.039Z,5.03
2018-07-26T18:59:39.376Z,5.30
2018-07-26T19:04:50.060Z,5.33
2018-07-26T19:09:59.419Z,4.90
2018-07-26T19:15:10.658Z,4.93
2018-07-26T19:20:21.476Z,5.10
2018-07-26T19:25:33.077Z,4.53
2018-07-26T19:30:43.486Z,5.00
2018-07-26T19:35:52.609Z,4.93
2018-07-26T19:41:02.410Z,5.13
2018-07-26T19:46:11.746Z,5.10
2018-07-26T19:51:21.402Z,5.20
2018-07-26T19:56:32.512Z,5.30
2018-07-26T20:01:41.851Z,4.90
2018-07-26T20:06:50.753Z,5.07
2018-07-26T20:11:59.735Z,5.00
2018-07-26T20:17:09.079Z,5.17
2018-07-26T20:22:18.100Z,4.80
2018-07-26T20:27:28.319Z,5.70
2018-07-26T20:32:37.458Z,4.73
2018-07-26T20:37:47.194Z,5.17
2018-07-26T20:42:56.151Z,5.50
2018-07-26T20:48:05.964Z,4.97
2018-07-26T20:53:14.823Z,4.90
2018-07-26T20:58:25.588Z,4.67
2018-07-26T21:03:35.605Z,5.73
2018-07-26T21:08:44.697Z,4.90
2018-07-26T21:13:53.869Z,4.53
2018-07-26T21:19:03.152Z,4.10
2018-07-26T21:24:12.836Z,4.40
2018-07-26T21:29:22.364Z,4.57
2018-07-26T21:34:31.769Z,3.90
2018-07-26T21:39:41.214Z,4.40
2018-07-26T21:44:50.307Z,3.97
2018-07-26T21:49:59.351Z,4.23
2018-07-26T21:55:08.541Z,4.40
2018-07-26T22:00:17.380Z,3.90
2018-07-26T22:05:26.387Z,4.40
2018-07-26T22:10:35.335Z,3.93
2018-07-26T22:15:44.394Z,3.90
2018-07-26T22:20:54.222Z,4.33
2018-07-26T22:26:03.542Z,4.40
2018-07-26T22:31:12.570Z,4.07
2018-07-26T22:36:21.647Z,4.73
2018-07-26T22:41:30.378Z,4.20
2018-07-26T22:46:39.575Z,4.17
2018-07-26T22:51:49.372Z,4.70
2018-07-26T23:02:25.010Z,4.30
2018-07-26T23:07:34.928Z,4.73
2018-07-26T23:12:44.765Z,4.87
2018-07-26T23:17:54.419Z,4.60
2018-07-26T23:23:04.014Z,4.20
2018-07-26T23:28:12.090Z,3.97
2018-07-26T23:33:22.002Z,4.40
2018-07-26T23:38:31.537Z,4.00
2018-07-26T23:43:41.093Z,4.23
2018-07-26T23:48:50.837Z,4.33
2018-07-26T23:53:59.838Z,4.90
2018-07-26T23:59:09.381Z,4.67
